Search for airport 
image banner adimage banner adimage banner ad
image banner ad

PA17 - Canaan's Field

Located in Lawrenceville, United States

ICAO - PA17, IATA -

Data provided by Airmate  

General information

Coordinates: N42°0'13" W77°6'0"
Elevation is 1600 feet MSL.
Magnetic variation is -11° East
View others Airports in Pennsylvania

Operational data

Special qualification required
Current time UTC:
Current local time:
Weather at : KELM - Elmira/Corning Rgnl ( 24 km )
METAR: KELM 182153Z 04005KT 10SM BKN095 27/07 A3025 RMK AO2 SLP243 T02720072
TAF: KELM 181722Z 1818/1918 VRB03KT P6SM FEW060
View NOTAMs / SUP AIP / TFR affecting this airport [VIEW]
Communications frequencies: [VIEW]

Runways:

RWY identifierQFULength (ft)Width (ft)SurfaceLDA (ft)
10160050GRASS
28160050GRASS
18240050GRASS
36240050GRASS

Airport contact information

Address: Lawrenceville United States

Satellite view of PA17